Terminal Aerodrome Forecast
Issued by NWS

Home | Current Version | Previous Version | Text Only | Print | Product List | Glossary On
Versions: 1 2 3 4 5 6 7 8 9 10 11 12 13 14 15 16 17 18 19 20 21 22 23 24 25 26 27
000
FTUS45 KSLC 291748 AAA
TAFPVU
TAF AMD
KPVU 291748Z 2918/3018 VRB05KT P6SM VCTS SCT070CB BKN100
      TEMPO 2918/2919 VRB10G20KT TSRA SCT050CB BKN070
     FM291900 30012KT P6SM VCTS SCT060CB BKN090
     FM300400 04006KT P6SM SCT080 BKN100
      AMD LTD TO CLD VIS AND WIND=

USA.gov is the U.S. government's official web portal to all federal, state and local government web resources and services.